Time;durP1;ratioP1;P1;durP2;ratioP2;P2;SDS_P1;SDS_P2;PMS_P1;PMS_P2;Temp;Humidity;BMP_temperature;BMP_pressure;BME280_temperature;BME280_humidity;BME280_pressure;Samples;Min_cycle;Max_cycle;Signal;HPM_P1;HPM_P2
2024/01/25 00:02:03;;;;;;;;;;;;;;;;;;5029567;28;19913;-82
2024/01/25 00:04:29;;;;;;;;;;;;;;;;;;5033160;28;19924;-81
2024/01/25 00:06:54;;;;;;;;;;;;;;;;;;5032203;28;19921;-82
2024/01/25 00:09:20;;;;;;;;;;;;;;;;;;5031261;28;20271;-84
2024/01/25 00:11:46;;;;;;;;;;;;;;;;;;5029701;28;19917;-81
2024/01/25 00:14:12;;;;;;;;;;;;;;;;;;5030059;28;19920;-82
2024/01/25 00:16:38;;;;;;;;;;;;;;;;;;5033577;28;20358;-81
2024/01/25 00:19:04;;;;;;;;;;;;;;;;;;5031606;28;19940;-81
2024/01/25 00:21:29;;;;;;;;;;;;;;;;;;5030602;28;19963;-82
2024/01/25 00:23:55;;;;;;;;;;;;;;;;;;5029921;28;20402;-82
2024/01/25 00:26:21;;;;;;;;;;;;;;;;;;5033146;28;20395;-81
2024/01/25 00:28:47;;;;;;;;;;;;;;;;;;5026463;28;20387;-83
2024/01/25 00:31:13;;;;;;;;;;;;;;;;;;5029274;28;19919;-83
2024/01/25 00:33:39;;;;;;;;;;;;;;;;;;5034223;28;19921;-82
2024/01/25 00:36:05;;;;;;;;;;;;;;;;;;5029999;28;20335;-82
2024/01/25 00:38:30;;;;;;;;;;;;;;;;;;5034170;28;19983;-81
2024/01/25 00:40:56;;;;;;;;;;;;;;;;;;5035864;28;19925;-81
2024/01/25 00:43:22;;;;;;;;;;;;;;;;;;5029972;28;20008;-82
2024/01/25 00:45:48;;;;;;;;;;;;;;;;;;5029488;28;19917;-81
2024/01/25 00:48:14;;;;;;;;;;;;;;;;;;5029722;28;19917;-81
2024/01/25 00:50:40;;;;;;;;;;;;;;;;;;5029663;28;19913;-84
2024/01/25 00:53:06;;;;;;;;;;;;;;;;;;5029713;28;19920;-83
2024/01/25 00:55:31;;;;;;;;;;;;;;;;;;5035587;28;19913;-82
2024/01/25 00:57:59;;;;;;;;;;;;;;;;;;5030570;28;19974;-83
2024/01/25 01:00:25;;;;;;;;;;;;;;;;;;5033467;28;20012;-81
2024/01/25 01:02:51;;;;;;;;;;;;;;;;;;5029308;28;19924;-82
2024/01/25 01:05:17;;;;;;;;;;;;;;;;;;5030891;28;20015;-82
2024/01/25 01:07:43;;;;;;;;;;;;;;;;;;5038671;28;19913;-82
2024/01/25 01:10:09;;;;;;;;;;;;;;;;;;5027987;28;19913;-82
2024/01/25 01:12:34;;;;;;;;;;;;;;;;;;5029001;28;20215;-82
2024/01/25 01:15:00;;;;;;;;;;;;;;;;;;5028822;28;19917;-82
2024/01/25 01:17:27;;;;;;;;;;;;;;;;;;5041265;28;20004;-81
2024/01/25 01:19:53;;;;;;;;;;;;;;;;;;5029299;28;19913;-83
2024/01/25 01:22:19;;;;;;;;;;;;;;;;;;5029396;28;20008;-82
2024/01/25 01:24:45;;;;;;;;;;;;;;;;;;5029155;28;20008;-82
2024/01/25 01:27:11;;;;;;;;;;;;;;;;;;5028757;28;19925;-82
2024/01/25 01:29:36;;;;;;;;;;;;;;;;;;5029038;28;20008;-84
2024/01/25 01:32:02;;;;;;;;;;;;;;;;;;5028812;28;20338;-82
2024/01/25 01:34:28;;;;;;;;;;;;;;;;;;5032792;28;19960;-82
2024/01/25 01:36:54;;;;;;;;;;;;;;;;;;5028076;28;19917;-83
2024/01/25 01:39:20;;;;;;;;;;;;;;;;;;5028204;28;19917;-82
2024/01/25 01:41:46;;;;;;;;;;;;;;;;;;5034452;28;19925;-83
2024/01/25 01:44:11;;;;;;;;;;;;;;;;;;5028729;28;19951;-82
2024/01/25 01:46:39;;;;;;;;;;;;;;;;;;5028833;28;19921;-82
2024/01/25 01:49:05;;;;;;;;;;;;;;;;;;5028762;28;19917;-83
2024/01/25 01:51:31;;;;;;;;;;;;;;;;;;5029115;28;19913;-82
2024/01/25 01:53:57;;;;;;;;;;;;;;;;;;5028904;28;19913;-83
2024/01/25 01:56:23;;;;;;;;;;;;;;;;;;5025429;28;19914;-83
2024/01/25 01:58:49;;;;;;;;;;;;;;;;;;5028332;28;19932;-84
2024/01/25 02:01:15;;;;;;;;;;;;;;;;;;5033830;28;20428;-82
2024/01/25 02:03:41;;;;;;;;;;;;;;;;;;5031465;28;19940;-83
2024/01/25 02:06:06;;;;;;;;;;;;;;;;;;5029862;28;20019;-83
2024/01/25 02:08:33;;;;;;;;;;;;;;;;;;5028565;28;20378;-84
2024/01/25 02:10:58;;;;;;;;;;;;;;;;;;5028693;28;19913;-82
2024/01/25 02:13:24;;;;;;;;;;;;;;;;;;5028115;28;19924;-82
2024/01/25 02:15:50;;;;;;;;;;;;;;;;;;5027885;28;20152;-81
2024/01/25 02:18:16;;;;;;;;;;;;;;;;;;5032728;28;20268;-82
2024/01/25 02:20:42;;;;;;;;;;;;;;;;;;5028940;28;20003;-82
2024/01/25 02:23:08;;;;;;;;;;;;;;;;;;5028387;28;19917;-83
2024/01/25 02:25:33;;;;;;;;;;;;;;;;;;5027914;28;19917;-83
2024/01/25 02:27:59;;;;;;;;;;;;;;;;;;5028747;28;19919;-83
2024/01/25 02:30:25;;;;;;;;;;;;;;;;;;5030022;28;19917;-83
2024/01/25 02:32:52;;;;;;;;;;;;;;;;;;5032250;28;19928;-83
2024/01/25 02:35:18;;;;;;;;;;;;;;;;;;5033311;28;19913;-83
2024/01/25 02:37:44;;;;;;;;;;;;;;;;;;5031913;28;20637;-83
2024/01/25 02:40:10;;;;;;;;;;;;;;;;;;5035909;28;20290;-83
2024/01/25 02:42:35;;;;;;;;;;;;;;;;;;5032517;28;19924;-82
2024/01/25 02:45:01;;;;;;;;;;;;;;;;;;5032115;28;19996;-83
2024/01/25 02:47:27;;;;;;;;;;;;;;;;;;5031631;28;19917;-81
2024/01/25 02:49:53;;;;;;;;;;;;;;;;;;5031624;28;19940;-82
2024/01/25 02:52:19;;;;;;;;;;;;;;;;;;5031344;28;20411;-82
2024/01/25 02:54:45;;;;;;;;;;;;;;;;;;5031212;28;20298;-84
2024/01/25 02:57:10;;;;;;;;;;;;;;;;;;5032369;28;19917;-85
2024/01/25 02:59:36;;;;;;;;;;;;;;;;;;5033429;28;19917;-82
2024/01/25 03:02:02;;;;;;;;;;;;;;;;;;5036698;28;20339;-82
2024/01/25 03:04:28;;;;;;;;;;;;;;;;;;5030909;28;19936;-83
2024/01/25 03:06:54;;;;;;;;;;;;;;;;;;5034157;28;20086;-85
2024/01/25 03:09:21;;;;;;;;;;;;;;;;;;5030530;28;20375;-84
2024/01/25 03:11:47;;;;;;;;;;;;;;;;;;5041332;28;20447;-83
2024/01/25 03:14:12;;;;;;;;;;;;;;;;;;5032485;28;20003;-83
2024/01/25 03:16:38;;;;;;;;;;;;;;;;;;5033343;28;19920;-84
2024/01/25 03:19:04;;;;;;;;;;;;;;;;;;5030645;28;19920;-84
2024/01/25 03:21:30;;;;;;;;;;;;;;;;;;5030950;28;19913;-84
2024/01/25 03:23:56;;;;;;;;;;;;;;;;;;5031065;28;19920;-83
2024/01/25 03:26:22;;;;;;;;;;;;;;;;;;5030356;28;19925;-82
2024/01/25 03:28:47;;;;;;;;;;;;;;;;;;5033017;28;19924;-83
2024/01/25 03:31:13;;;;;;;;;;;;;;;;;;5030588;28;20010;-82
2024/01/25 03:33:39;;;;;;;;;;;;;;;;;;5030587;28;19913;-82
2024/01/25 03:36:05;;;;;;;;;;;;;;;;;;5031055;28;19913;-84
2024/01/25 03:38:31;;;;;;;;;;;;;;;;;;5030650;28;20027;-85
2024/01/25 03:40:58;;;;;;;;;;;;;;;;;;5034787;28;19921;-82
2024/01/25 03:43:24;;;;;;;;;;;;;;;;;;5029571;28;19963;-84
2024/01/25 03:45:50;;;;;;;;;;;;;;;;;;5030482;28;19948;-84
2024/01/25 03:48:15;;;;;;;;;;;;;;;;;;5029442;28;19913;-83
2024/01/25 03:50:41;;;;;;;;;;;;;;;;;;5030157;28;19944;-82
2024/01/25 03:53:07;;;;;;;;;;;;;;;;;;5030884;28;20012;-83
2024/01/25 03:55:33;;;;;;;;;;;;;;;;;;5035043;28;19913;-84
2024/01/25 03:57:59;;;;;;;;;;;;;;;;;;5029935;28;19967;-83
2024/01/25 04:00:25;;;;;;;;;;;;;;;;;;5029251;28;20312;-82
2024/01/25 04:02:50;;;;;;;;;;;;;;;;;;5022900;28;19917;-82
2024/01/25 04:05:16;;;;;;;;;;;;;;;;;;5029219;28;19921;-85
2024/01/25 04:07:48;;;;;;;;;;;;;;;;;;5029661;28;19913;-83
2024/01/25 04:10:14;;;;;;;;;;;;;;;;;;5029678;28;19973;-82
2024/01/25 04:12:39;;;;;;;;;;;;;;;;;;5030153;28;19916;-82
2024/01/25 04:15:05;;;;;;;;;;;;;;;;;;5030214;28;20276;-81
2024/01/25 04:17:31;;;;;;;;;;;;;;;;;;5027695;28;20003;-81
2024/01/25 04:19:57;;;;;;;;;;;;;;;;;;5029249;28;19917;-82
2024/01/25 04:22:23;;;;;;;;;;;;;;;;;;5029430;28;19909;-81
2024/01/25 04:24:49;;;;;;;;;;;;;;;;;;5030111;28;19913;-82
2024/01/25 04:27:16;;;;;;;;;;;;;;;;;;5030152;28;20367;-82
2024/01/25 04:29:42;;;;;;;;;;;;;;;;;;5029636;28;20359;-82
2024/01/25 04:32:08;;;;;;;;;;;;;;;;;;5029026;28;19920;-83
2024/01/25 04:34:34;;;;;;;;;;;;;;;;;;5029442;28;19917;-82
2024/01/25 04:36:59;;;;;;;;;;;;;;;;;;5029862;28;20359;-82
2024/01/25 04:39:25;;;;;;;;;;;;;;;;;;5029347;28;20502;-81
2024/01/25 04:41:51;;;;;;;;;;;;;;;;;;5035268;28;19916;-83
2024/01/25 04:44:17;;;;;;;;;;;;;;;;;;5028631;28;20032;-82
2024/01/25 04:46:43;;;;;;;;;;;;;;;;;;5029529;28;19917;-81
2024/01/25 04:49:09;;;;;;;;;;;;;;;;;;5029514;28;19919;-81
2024/01/25 04:51:35;;;;;;;;;;;;;;;;;;5029351;28;19925;-81
2024/01/25 04:54:01;;;;;;;;;;;;;;;;;;5028446;28;19940;-83
2024/01/25 04:56:27;;;;;;;;;;;;;;;;;;5029395;28;19913;-82
2024/01/25 04:58:53;;;;;;;;;;;;;;;;;;5028876;28;19947;-82
2024/01/25 05:01:19;;;;;;;;;;;;;;;;;;5036259;28;19919;-83
2024/01/25 05:03:44;;;;;;;;;;;;;;;;;;5029379;28;20143;-80
2024/01/25 05:06:10;;;;;;;;;;;;;;;;;;5029355;28;20007;-80
2024/01/25 05:08:36;;;;;;;;;;;;;;;;;;5024271;28;19924;-80
2024/01/25 05:11:02;;;;;;;;;;;;;;;;;;5027326;28;19913;-85
2024/01/25 05:13:28;;;;;;;;;;;;;;;;;;5028980;28;19967;-83
2024/01/25 05:15:54;;;;;;;;;;;;;;;;;;5028823;28;19917;-84
2024/01/25 05:18:20;;;;;;;;;;;;;;;;;;5028769;28;19912;-81
2024/01/25 05:20:46;;;;;;;;;;;;;;;;;;5028961;28;19925;-81
2024/01/25 05:23:12;;;;;;;;;;;;;;;;;;5028976;28;19920;-81
2024/01/25 05:25:38;;;;;;;;;;;;;;;;;;5028696;28;19917;-81
2024/01/25 05:28:03;;;;;;;;;;;;;;;;;;5026704;28;20291;-82
2024/01/25 05:30:29;;;;;;;;;;;;;;;;;;5028437;28;19921;-81
2024/01/25 05:32:55;;;;;;;;;;;;;;;;;;5028461;28;19928;-83
2024/01/25 05:35:21;;;;;;;;;;;;;;;;;;5029008;28;19941;-81
2024/01/25 05:37:47;;;;;;;;;;;;;;;;;;5028028;28;19920;-82
2024/01/25 05:40:13;;;;;;;;;;;;;;;;;;5033177;28;19953;-83
2024/01/25 05:42:47;;;;;;;;;;;;;;;;;;5029430;28;19916;-82
2024/01/25 05:45:13;;;;;;;;;;;;;;;;;;5028857;28;19921;-82
2024/01/25 05:47:39;;;;;;;;;;;;;;;;;;5028908;28;19917;-82
2024/01/25 05:50:05;;;;;;;;;;;;;;;;;;5028846;28;19971;-84
2024/01/25 05:52:31;;;;;;;;;;;;;;;;;;5026412;28;19921;-81
2024/01/25 05:54:57;;;;;;;;;;;;;;;;;;5028368;28;19966;-82
2024/01/25 05:57:23;;;;;;;;;;;;;;;;;;5029117;28;20326;-82
2024/01/25 05:59:49;;;;;;;;;;;;;;;;;;5028640;28;19924;-81
2024/01/25 06:02:15;;;;;;;;;;;;;;;;;;5031194;28;19913;-83
2024/01/25 06:04:41;;;;;;;;;;;;;;;;;;5030103;28;19913;-83
2024/01/25 06:07:07;;;;;;;;;;;;;;;;;;5032499;28;19917;-83
2024/01/25 06:09:33;;;;;;;;;;;;;;;;;;5030922;28;19967;-80
2024/01/25 06:11:59;;;;;;;;;;;;;;;;;;5031218;28;20386;-82
2024/01/25 06:14:24;;;;;;;;;;;;;;;;;;5032920;28;19909;-82
2024/01/25 06:16:50;;;;;;;;;;;;;;;;;;5031329;28;19995;-82
2024/01/25 06:19:16;;;;;;;;;;;;;;;;;;5032376;28;19914;-80
2024/01/25 06:21:51;;;;;;;;;;;;;;;;;;5031240;28;19948;-81
2024/01/25 06:24:17;;;;;;;;;;;;;;;;;;5025710;28;20272;-81
2024/01/25 06:26:43;;;;;;;;;;;;;;;;;;5032377;28;19921;-81
2024/01/25 06:29:09;;;;;;;;;;;;;;;;;;5032519;28;19909;-81
2024/01/25 06:31:34;;;;;;;;;;;;;;;;;;5031937;28;19992;-80
2024/01/25 06:34:00;;;;;;;;;;;;;;;;;;5031715;28;20625;-79
2024/01/25 06:36:26;;;;;;;;;;;;;;;;;;5032129;28;20315;-82
2024/01/25 06:39:01;;;;;;;;;;;;;;;;;;5032243;28;19909;-85
2024/01/25 06:41:27;;;;;;;;;;;;;;;;;;5037357;28;19960;-82
2024/01/25 06:43:56;;;;;;;;;;;;;;;;;;5031919;28;20435;-81
2024/01/25 06:46:22;;;;;;;;;;;;;;;;;;5031587;28;19928;-83
2024/01/25 06:48:47;;;;;;;;;;;;;;;;;;5032156;28;19913;-82
2024/01/25 06:51:14;;;;;;;;;;;;;;;;;;5030950;28;19917;-81
2024/01/25 06:53:40;;;;;;;;;;;;;;;;;;5031368;28;20008;-81
2024/01/25 06:56:06;;;;;;;;;;;;;;;;;;5031816;28;19920;-81
2024/01/25 06:58:32;;;;;;;;;;;;;;;;;;5030892;28;19927;-82
2024/01/25 07:00:58;;;;;;;;;;;;;;;;;;5031253;28;20111;-80
2024/01/25 07:03:24;;;;;;;;;;;;;;;;;;5031100;28;19984;-81
2024/01/25 07:05:50;;;;;;;;;;;;;;;;;;5030892;28;19924;-81
2024/01/25 07:08:16;;;;;;;;;;;;;;;;;;5031537;28;19909;-81
2024/01/25 07:10:41;;;;;;;;;;;;;;;;;;5025448;28;19913;-81
2024/01/25 07:13:07;;;;;;;;;;;;;;;;;;5028553;28;19994;-82
2024/01/25 07:15:33;;;;;;;;;;;;;;;;;;5030002;28;19924;-81
2024/01/25 07:17:59;;;;;;;;;;;;;;;;;;5031001;28;19913;-81
2024/01/25 07:20:25;;;;;;;;;;;;;;;;;;5030832;28;19921;-83
2024/01/25 07:22:51;;;;;;;;;;;;;;;;;;5031099;28;19923;-81
2024/01/25 07:25:16;;;;;;;;;;;;;;;;;;5031250;28;19963;-82
2024/01/25 07:27:42;;;;;;;;;;;;;;;;;;5031137;28;19917;-81
2024/01/25 07:30:08;;;;;;;;;;;;;;;;;;5031028;28;19916;-82
2024/01/25 07:32:35;;;;;;;;;;;;;;;;;;5030442;28;20527;-82
2024/01/25 07:35:01;;;;;;;;;;;;;;;;;;5030797;28;20293;-81
2024/01/25 07:37:27;;;;;;;;;;;;;;;;;;5030951;28;20012;-82
2024/01/25 07:39:53;;;;;;;;;;;;;;;;;;5033036;28;20390;-81
2024/01/25 07:42:19;;;;;;;;;;;;;;;;;;5034083;28;19992;-80
2024/01/25 07:44:44;;;;;;;;;;;;;;;;;;5030332;28;19967;-80
2024/01/25 07:47:10;;;;;;;;;;;;;;;;;;5030755;28;20536;-81
2024/01/25 07:49:36;;;;;;;;;;;;;;;;;;5030206;28;20397;-80
2024/01/25 07:52:02;;;;;;;;;;;;;;;;;;5030144;28;20023;-80
2024/01/25 07:54:28;;;;;;;;;;;;;;;;;;5029878;28;19913;-79
2024/01/25 07:56:54;;;;;;;;;;;;;;;;;;5030269;28;19935;-80
2024/01/25 07:59:20;;;;;;;;;;;;;;;;;;5030229;28;19967;-80
2024/01/25 08:01:45;;;;;;;;;;;;;;;;;;5029997;28;19913;-80
2024/01/25 08:04:11;;;;;;;;;;;;;;;;;;5030196;28;19917;-80
2024/01/25 08:06:37;;;;;;;;;;;;;;;;;;5025910;28;19921;-80
2024/01/25 08:09:03;;;;;;;;;;;;;;;;;;5030182;28;19917;-79
2024/01/25 08:11:29;;;;;;;;;;;;;;;;;;5030098;28;19913;-79
2024/01/25 08:13:55;;;;;;;;;;;;;;;;;;5030644;28;19920;-79
2024/01/25 08:16:20;;;;;;;;;;;;;;;;;;5029538;28;19917;-80
2024/01/25 08:18:46;;;;;;;;;;;;;;;;;;5028819;28;19921;-79
2024/01/25 08:21:12;;;;;;;;;;;;;;;;;;5030344;28;19916;-80
2024/01/25 08:23:39;;;;;;;;;;;;;;;;;;5029106;28;20372;-79
2024/01/25 08:26:05;;;;;;;;;;;;;;;;;;5029184;28;20344;-80
2024/01/25 08:28:30;;;;;;;;;;;;;;;;;;5029018;28;20014;-79
2024/01/25 08:30:57;;;;;;;;;;;;;;;;;;5029378;28;20039;-79
2024/01/25 08:33:24;;;;;;;;;;;;;;;;;;5029835;28;19913;-80
2024/01/25 08:35:51;;;;;;;;;;;;;;;;;;5029563;28;19920;-79
2024/01/25 08:38:16;;;;;;;;;;;;;;;;;;5028635;28;19942;-84
2024/01/25 08:40:42;;;;;;;;;;;;;;;;;;5035531;28;20439;-87
2024/01/25 08:43:08;;;;;;;;;;;;;;;;;;5030742;28;20525;-86
2024/01/25 08:45:34;;;;;;;;;;;;;;;;;;5029762;28;19944;-88
2024/01/25 08:48:00;;;;;;;;;;;;;;;;;;5030207;28;19956;-89
2024/01/25 08:50:26;;;;;;;;;;;;;;;;;;5030990;28;19921;-87
2024/01/25 08:52:52;;;;;;;;;;;;;;;;;;5031072;28;19913;-87
2024/01/25 08:55:18;;;;;;;;;;;;;;;;;;5029593;28;19917;-88
2024/01/25 08:57:44;;;;;;;;;;;;;;;;;;5030405;28;19967;-85
2024/01/25 09:00:10;;;;;;;;;;;;;;;;;;5032647;28;19909;-86
2024/01/25 09:02:36;;;;;;;;;;;;;;;;;;5033056;28;19916;-87
2024/01/25 09:05:03;;;;;;;;;;;;;;;;;;5029561;28;20056;-88
2024/01/25 09:07:29;;;;;;;;;;;;;;;;;;5029006;28;19999;-86
2024/01/25 09:09:55;;;;;;;;;;;;;;;;;;5030437;28;19936;-86
2024/01/25 09:12:21;;;;;;;;;;;;;;;;;;5030452;28;19968;-85
2024/01/25 09:14:46;;;;;;;;;;;;;;;;;;5031482;28;19916;-88
2024/01/25 09:17:13;;;;;;;;;;;;;;;;;;5026681;28;19963;-87
2024/01/25 09:19:39;;;;;;;;;;;;;;;;;;5030288;28;19913;-83
2024/01/25 09:22:05;;;;;;;;;;;;;;;;;;5029199;28;19917;-84
2024/01/25 09:24:31;;;;;;;;;;;;;;;;;;5029576;28;19917;-85
2024/01/25 09:26:59;;;;;;;;;;;;;;;;;;5028503;28;19921;-85
2024/01/25 09:29:24;;;;;;;;;;;;;;;;;;5028707;28;19921;-88
2024/01/25 09:31:50;;;;;;;;;;;;;;;;;;5028009;28;20002;-84
2024/01/25 09:34:16;;;;;;;;;;;;;;;;;;5029012;28;19913;-82
2024/01/25 09:36:42;;;;;;;;;;;;;;;;;;5027706;28;19917;-84
2024/01/25 09:39:08;;;;;;;;;;;;;;;;;;5030597;28;19931;-85
2024/01/25 09:41:34;;;;;;;;;;;;;;;;;;5018608;28;20011;-84
2024/01/25 09:44:00;;;;;;;;;;;;;;;;;;5025870;28;22025;-84
2024/01/25 09:46:25;;;;;;;;;;;;;;;;;;5029631;28;20290;-89
2024/01/25 09:48:51;;;;;;;;;;;;;;;;;;5024804;28;19913;-88
2024/01/25 09:51:17;;;;;;;;;;;;;;;;;;5029214;28;19917;-85
2024/01/25 09:53:43;;;;;;;;;;;;;;;;;;5033474;28;20024;-84
2024/01/25 09:56:09;;;;;;;;;;;;;;;;;;5031080;28;19913;-85
2024/01/25 09:58:35;;;;;;;;;;;;;;;;;;5026419;28;19959;-85
2024/01/25 10:01:00;;;;;;;;;;;;;;;;;;5031934;28;19921;-87
2024/01/25 10:03:26;;;;;;;;;;;;;;;;;;5031819;28;19956;-84
2024/01/25 10:05:52;;;;;;;;;;;;;;;;;;5033301;28;19924;-85
2024/01/25 10:08:20;;;;;;;;;;;;;;;;;;5031255;28;20394;-85
2024/01/25 10:10:46;;;;;;;;;;;;;;;;;;5030679;28;19917;-85
2024/01/25 10:13:12;;;;;;;;;;;;;;;;;;5031277;28;19920;-86
2024/01/25 10:15:38;;;;;;;;;;;;;;;;;;5031024;28;20375;-85
2024/01/25 10:18:04;;;;;;;;;;;;;;;;;;5031049;28;19913;-86
2024/01/25 10:20:30;;;;;;;;;;;;;;;;;;5031832;28;19921;-85
2024/01/25 10:22:56;;;;;;;;;;;;;;;;;;5031208;28;20398;-85
2024/01/25 10:25:22;;;;;;;;;;;;;;;;;;5031304;28;19921;-86
2024/01/25 10:27:48;;;;;;;;;;;;;;;;;;5030964;28;19971;-84
2024/01/25 10:30:14;;;;;;;;;;;;;;;;;;5029401;28;19921;-85
2024/01/25 10:32:40;;;;;;;;;;;;;;;;;;5031370;28;19913;-85
2024/01/25 10:35:07;;;;;;;;;;;;;;;;;;5027325;28;19932;-84
2024/01/25 10:37:33;;;;;;;;;;;;;;;;;;5031010;28;20654;-85
2024/01/25 10:39:58;;;;;;;;;;;;;;;;;;5031454;28;20443;-87
2024/01/25 10:42:24;;;;;;;;;;;;;;;;;;5030034;28;19913;-84
2024/01/25 10:44:51;;;;;;;;;;;;;;;;;;5032011;28;19909;-84
2024/01/25 10:47:17;;;;;;;;;;;;;;;;;;5030758;28;19917;-85
2024/01/25 10:49:43;;;;;;;;;;;;;;;;;;5030791;28;19940;-85
2024/01/25 10:52:08;;;;;;;;;;;;;;;;;;5029234;28;19975;-84
2024/01/25 10:54:34;;;;;;;;;;;;;;;;;;5030287;28;19917;-84
2024/01/25 10:57:00;;;;;;;;;;;;;;;;;;5032097;28;20294;-84
2024/01/25 10:59:27;;;;;;;;;;;;;;;;;;5031303;28;19917;-85
2024/01/25 11:01:53;;;;;;;;;;;;;;;;;;5030598;28;19917;-84
2024/01/25 11:04:19;;;;;;;;;;;;;;;;;;5031628;28;19917;-85
2024/01/25 11:06:45;;;;;;;;;;;;;;;;;;5037912;28;19916;-84
2024/01/25 11:09:11;;;;;;;;;;;;;;;;;;5027757;28;20016;-82
2024/01/25 11:11:37;;;;;;;;;;;;;;;;;;5028848;28;20120;-83
2024/01/25 11:14:03;;;;;;;;;;;;;;;;;;5028350;28;19921;-82
2024/01/25 11:16:29;;;;;;;;;;;;;;;;;;5028282;28;19920;-82
2024/01/25 11:18:55;;;;;;;;;;;;;;;;;;5029394;28;20394;-82
2024/01/25 11:21:21;;;;;;;;;;;;;;;;;;5029194;28;19916;-86
2024/01/25 11:23:47;;;;;;;;;;;;;;;;;;5030355;28;20321;-87
2024/01/25 11:26:13;;;;;;;;;;;;;;;;;;5030779;28;19928;-81
2024/01/25 11:28:39;;;;;;;;;;;;;;;;;;5028704;28;19913;-80
2024/01/25 11:31:05;;;;;;;;;;;;;;;;;;5030047;28;19917;-80
2024/01/25 11:33:30;;;;;;;;;;;;;;;;;;5028791;28;19916;-80
2024/01/25 11:35:56;;;;;;;;;;;;;;;;;;5030684;28;19909;-80
2024/01/25 11:38:22;;;;;;;;;;;;;;;;;;5030824;28;19909;-81
2024/01/25 11:40:48;;;;;;;;;;;;;;;;;;5036061;28;19964;-80
2024/01/25 11:43:14;;;;;;;;;;;;;;;;;;5030626;28;19949;-80
2024/01/25 11:45:42;;;;;;;;;;;;;;;;;;5030543;28;19917;-80
2024/01/25 11:48:08;;;;;;;;;;;;;;;;;;5030622;28;19909;-81
2024/01/25 11:50:34;;;;;;;;;;;;;;;;;;5030161;28;19920;-82
2024/01/25 11:53:00;;;;;;;;;;;;;;;;;;5030644;28;19909;-80
2024/01/25 11:55:26;;;;;;;;;;;;;;;;;;5030786;28;19951;-81
2024/01/25 11:57:52;;;;;;;;;;;;;;;;;;5030168;28;20607;-80
2024/01/25 12:00:17;;;;;;;;;;;;;;;;;;5030319;28;19916;-81
2024/01/25 12:02:43;;;;;;;;;;;;;;;;;;5029018;28;19909;-80
2024/01/25 12:05:09;;;;;;;;;;;;;;;;;;5030190;28;20367;-79
2024/01/25 12:07:36;;;;;;;;;;;;;;;;;;5036238;28;19948;-79
2024/01/25 12:10:02;;;;;;;;;;;;;;;;;;5030246;28;19913;-80
2024/01/25 12:12:27;;;;;;;;;;;;;;;;;;5029970;28;19917;-79
2024/01/25 12:14:53;;;;;;;;;;;;;;;;;;5029765;28;19920;-79
2024/01/25 12:17:19;;;;;;;;;;;;;;;;;;5029844;28;19924;-78
2024/01/25 12:19:45;;;;;;;;;;;;;;;;;;5029701;28;19917;-79
2024/01/25 12:22:11;;;;;;;;;;;;;;;;;;5030018;28;19936;-79
2024/01/25 12:24:37;;;;;;;;;;;;;;;;;;5029495;28;19917;-79
2024/01/25 12:27:02;;;;;;;;;;;;;;;;;;5028301;28;19925;-79
2024/01/25 12:29:28;;;;;;;;;;;;;;;;;;5029187;28;19909;-79
2024/01/25 12:31:54;;;;;;;;;;;;;;;;;;5028365;28;19913;-80
2024/01/25 12:34:20;;;;;;;;;;;;;;;;;;5025836;28;19917;-80
2024/01/25 12:36:46;;;;;;;;;;;;;;;;;;5028352;28;19912;-86
2024/01/25 12:39:14;;;;;;;;;;;;;;;;;;5028923;28;19921;-78
2024/01/25 12:41:40;;;;;;;;;;;;;;;;;;5028551;28;20022;-81
2024/01/25 12:44:06;;;;;;;;;;;;;;;;;;5020407;28;19996;-80
2024/01/25 12:46:32;;;;;;;;;;;;;;;;;;5028630;28;20453;-80
2024/01/25 12:48:58;;;;;;;;;;;;;;;;;;5026933;28;19917;-78
2024/01/25 12:51:24;;;;;;;;;;;;;;;;;;5027387;28;19986;-78
2024/01/25 12:53:50;;;;;;;;;;;;;;;;;;5024242;28;20816;-78
2024/01/25 12:56:16;;;;;;;;;;;;;;;;;;5027844;28;19917;-78
2024/01/25 12:58:42;;;;;;;;;;;;;;;;;;5027812;28;19913;-79
2024/01/25 13:01:08;;;;;;;;;;;;;;;;;;5028310;28;20283;-80
2024/01/25 13:03:34;;;;;;;;;;;;;;;;;;5024928;28;19924;-79
2024/01/25 13:06:03;;;;;;;;;;;;;;;;;;5027896;28;19921;-79
2024/01/25 13:08:28;;;;;;;;;;;;;;;;;;5027175;28;20012;-79
2024/01/25 13:10:54;;;;;;;;;;;;;;;;;;5026078;28;20000;-85
2024/01/25 13:13:21;;;;;;;;;;;;;;;;;;5027530;28;19925;-77
2024/01/25 13:15:47;;;;;;;;;;;;;;;;;;5025818;28;19913;-85
2024/01/25 13:18:13;;;;;;;;;;;;;;;;;;5026592;28;20012;-85
2024/01/25 13:20:39;;;;;;;;;;;;;;;;;;5024572;28;19928;-87
2024/01/25 13:23:05;;;;;;;;;;;;;;;;;;5026696;28;19920;-86
2024/01/25 13:25:30;;;;;;;;;;;;;;;;;;5026778;28;19981;-87
2024/01/25 13:27:56;;;;;;;;;;;;;;;;;;5027154;28;19971;-88
2024/01/25 13:30:22;;;;;;;;;;;;;;;;;;5026978;28;19924;-87
2024/01/25 13:32:48;;;;;;;;;;;;;;;;;;5011580;28;19960;-87
2024/01/25 13:35:14;;;;;;;;;;;;;;;;;;5026776;28;19917;-87
2024/01/25 13:37:40;;;;;;;;;;;;;;;;;;5027267;28;19998;-87
2024/01/25 13:40:06;;;;;;;;;;;;;;;;;;5026097;28;20083;-87
2024/01/25 13:42:32;;;;;;;;;;;;;;;;;;5026219;28;19917;-87
2024/01/25 13:44:57;;;;;;;;;;;;;;;;;;5024229;28;20366;-88
2024/01/25 13:47:24;;;;;;;;;;;;;;;;;;5025096;28;19923;-88
2024/01/25 13:49:50;;;;;;;;;;;;;;;;;;5024788;28;20463;-86
2024/01/25 13:52:16;;;;;;;;;;;;;;;;;;5026347;28;19913;-86
2024/01/25 13:54:41;;;;;;;;;;;;;;;;;;5025153;28;20421;-86
2024/01/25 13:57:07;;;;;;;;;;;;;;;;;;5026486;28;20719;-85
2024/01/25 13:59:33;;;;;;;;;;;;;;;;;;5025681;28;19936;-85
2024/01/25 14:01:59;;;;;;;;;;;;;;;;;;5026758;28;19968;-85
2024/01/25 14:04:25;;;;;;;;;;;;;;;;;;5027440;28;19921;-87
2024/01/25 14:06:51;;;;;;;;;;;;;;;;;;5027870;28;19913;-85
2024/01/25 14:09:16;;;;;;;;;;;;;;;;;;5031297;28;20008;-86
2024/01/25 14:11:42;;;;;;;;;;;;;;;;;;5027086;28;20007;-85
2024/01/25 14:14:08;;;;;;;;;;;;;;;;;;5019438;28;19925;-86
2024/01/25 14:16:34;;;;;;;;;;;;;;;;;;5019505;28;19994;-86
2024/01/25 14:19:03;;;;;;;;;;;;;;;;;;5027686;28;19909;-87
2024/01/25 14:21:28;;;;;;;;;;;;;;;;;;5026133;28;19921;-85
2024/01/25 14:23:54;;;;;;;;;;;;;;;;;;5023559;28;20000;-86
2024/01/25 14:26:20;;;;;;;;;;;;;;;;;;5021581;28;19917;-86
2024/01/25 14:28:46;;;;;;;;;;;;;;;;;;5030442;28;19920;-87
2024/01/25 14:31:12;;;;;;;;;;;;;;;;;;5031277;28;20019;-86
2024/01/25 14:33:38;;;;;;;;;;;;;;;;;;5029097;28;19921;-86
2024/01/25 14:36:04;;;;;;;;;;;;;;;;;;5024630;28;19917;-87
2024/01/25 14:38:29;;;;;;;;;;;;;;;;;;5030065;28;19913;-85
2024/01/25 14:40:55;;;;;;;;;;;;;;;;;;5029524;28;20345;-86
2024/01/25 14:43:21;;;;;;;;;;;;;;;;;;5025265;28;20050;-87
2024/01/25 14:45:47;;;;;;;;;;;;;;;;;;5030818;28;19960;-85
2024/01/25 14:48:13;;;;;;;;;;;;;;;;;;5031167;28;19913;-85
2024/01/25 14:50:39;;;;;;;;;;;;;;;;;;5031056;28;19954;-79
2024/01/25 14:53:04;;;;;;;;;;;;;;;;;;5028922;28;20442;-86
2024/01/25 14:55:30;;;;;;;;;;;;;;;;;;5029884;28;19957;-84
2024/01/25 14:57:56;;;;;;;;;;;;;;;;;;5023654;28;19917;-84
2024/01/25 15:00:22;;;;;;;;;;;;;;;;;;5024853;28;19967;-86
2024/01/25 15:02:48;;;;;;;;;;;;;;;;;;5028230;28;19913;-86
2024/01/25 15:05:14;;;;;;;;;;;;;;;;;;5027788;28;19933;-86
2024/01/25 15:07:40;;;;;;;;;;;;;;;;;;5020915;28;19933;-85
2024/01/25 15:10:06;;;;;;;;;;;;;;;;;;5024336;28;19913;-84
2024/01/25 15:12:31;;;;;;;;;;;;;;;;;;5027939;28;19975;-84
2024/01/25 15:14:58;;;;;;;;;;;;;;;;;;5027511;28;20386;-85
2024/01/25 15:17:24;;;;;;;;;;;;;;;;;;5026913;28;20782;-85
2024/01/25 15:19:50;;;;;;;;;;;;;;;;;;5028516;28;19913;-85
2024/01/25 15:22:15;;;;;;;;;;;;;;;;;;5028296;28;20371;-84
2024/01/25 15:24:41;;;;;;;;;;;;;;;;;;5027452;28;19924;-83
2024/01/25 15:27:07;;;;;;;;;;;;;;;;;;5027338;28;19917;-85
2024/01/25 15:29:33;;;;;;;;;;;;;;;;;;5027463;28;20116;-85
2024/01/25 15:31:59;;;;;;;;;;;;;;;;;;5027462;28;20303;-84
2024/01/25 15:34:25;;;;;;;;;;;;;;;;;;5028260;28;19914;-84
2024/01/25 15:36:50;;;;;;;;;;;;;;;;;;5026132;28;19916;-84
2024/01/25 15:39:18;;;;;;;;;;;;;;;;;;5029334;28;19917;-85
2024/01/25 15:41:45;;;;;;;;;;;;;;;;;;5026636;28;20302;-84
2024/01/25 15:44:11;;;;;;;;;;;;;;;;;;5028411;28;20018;-84
2024/01/25 15:46:37;;;;;;;;;;;;;;;;;;5027444;28;20006;-84
2024/01/25 15:49:02;;;;;;;;;;;;;;;;;;5025244;28;19921;-84
2024/01/25 15:51:28;;;;;;;;;;;;;;;;;;5026907;28;19940;-85
2024/01/25 15:53:54;;;;;;;;;;;;;;;;;;5027020;28;19921;-84
2024/01/25 15:56:20;;;;;;;;;;;;;;;;;;5029347;28;19964;-84
2024/01/25 15:58:46;;;;;;;;;;;;;;;;;;5026799;28;19928;-85
2024/01/25 16:01:12;;;;;;;;;;;;;;;;;;5027862;28;19925;-85
2024/01/25 16:03:39;;;;;;;;;;;;;;;;;;5027218;28;19916;-83
2024/01/25 16:06:05;;;;;;;;;;;;;;;;;;5025626;28;19967;-85
2024/01/25 16:08:30;;;;;;;;;;;;;;;;;;5027847;28;19917;-84
2024/01/25 16:10:56;;;;;;;;;;;;;;;;;;5025360;28;19917;-82
2024/01/25 16:13:22;;;;;;;;;;;;;;;;;;5027339;28;19917;-85
2024/01/25 16:15:48;;;;;;;;;;;;;;;;;;5025840;28;19919;-85
2024/01/25 16:18:14;;;;;;;;;;;;;;;;;;5028988;28;19929;-84
2024/01/25 16:20:40;;;;;;;;;;;;;;;;;;5028726;28;20374;-85
2024/01/25 16:23:06;;;;;;;;;;;;;;;;;;5027699;28;20485;-86
2024/01/25 16:25:31;;;;;;;;;;;;;;;;;;5030606;28;19921;-86
2024/01/25 16:27:58;;;;;;;;;;;;;;;;;;5019370;28;19932;-88
2024/01/25 16:30:24;;;;;;;;;;;;;;;;;;5025351;28;20387;-85
2024/01/25 16:32:50;;;;;;;;;;;;;;;;;;5028415;28;19921;-84
2024/01/25 16:35:16;;;;;;;;;;;;;;;;;;5026157;28;19929;-84
2024/01/25 16:37:42;;;;;;;;;;;;;;;;;;5025280;28;19921;-85